KTYS/TYS METAR and TAF weather

Enter ICAO airport designator
Station Type Date Time Source
KTYS METAR 2020/01/27 10:53 UTC NOAA

KTYS 271053Z 21007KT 10SM -RA OVC019 06/03 A2990 RMK AO2 SLP127 P0003 T00560033 $


Station Type Date Time Source
KTYS Decoded METAR 2020/01/27 10:53 UTC NOAA

MCGHEE TYSON AIRPORT, TN, United States (KTYS) 35-49N 083-59W 302M
Jan 27, 2020 - 05:53 AM EST / 2020.01.27 1053 UTC
Wind: from the SSW (210 degrees) at 8 MPH (7 KT):0
Visibility: 10 mile(s):0
Sky conditions: overcast
Weather: light rain
Precipitation last hour: 0.03 inches
Temperature: 42.1 F (5.6 C)
Dew Point: 37.9 F (3.3 C)
Relative Humidity: 85%
Pressure (altimeter): 29.9 in. Hg (1012 hPa)
ob: KTYS 271053Z 21007KT 10SM -RA OVC019 06/03 A2990 RMK AO2 SLP127 P0003 T00560033
cycle: 11

Station Type Date Time Source
KTYS TAF 2020/01/27 06:33 UTC NOAA

KTYS 270530Z 2706/2806 21005KT P6SM OVC028
FM270800 22004KT 6SM -SHRA BR SCT007 OVC025
TEMPO 2709/2711 4SM -SHRA BR BKN007
FM271100 22005KT 5SM -SHRA BR OVC007
FM271600 24007KT 6SM BR OVC015 PROB30 2716/2720 4SM -SHRA OVC007
FM272000 27008KT P6SM BKN020

Example: see airport list